Time;durP1;ratioP1;P1;durP2;ratioP2;P2;SDS_P1;SDS_P2;PMS_P1;PMS_P2;Temp;Humidity;BMP_temperature;BMP_pressure;BME280_temperature;BME280_humidity;BME280_pressure;Samples;Min_cycle;Max_cycle;Signal;HPM_P1;HPM_P2
2022/02/14 00:01:30;;;;;;;;;;;;;;;20.60;43.19;98845.44;7290785;19;153302;-50
2022/02/14 00:03:57;;;;;;;;;;;;;;;20.64;43.10;98837.13;7280236;19;153000;-50
2022/02/14 00:06:24;;;;;;;;;;;;;;;20.67;43.26;98847.66;7282345;19;154207;-50
2022/02/14 00:08:51;;;;;;;;;;;;;;;20.68;42.97;98836.03;7283651;19;153544;-50
2022/02/14 00:11:18;;;;;;;;;;;;;;;20.71;43.28;98843.75;7283496;19;152393;-50
2022/02/14 00:13:45;;;;;;;;;;;;;;;20.73;42.94;98841.38;7283959;19;152949;-50
2022/02/14 00:16:12;;;;;;;;;;;;;;;20.76;43.33;98842.63;7283609;19;154712;-51
2022/02/14 00:18:39;;;;;;;;;;;;;;;20.76;42.87;98837.03;7283688;19;152001;-50
2022/02/14 00:21:06;;;;;;;;;;;;;;;20.78;43.37;98837.50;7286123;19;152987;-51
2022/02/14 00:23:33;;;;;;;;;;;;;;;20.80;43.22;98840.78;7288043;19;154369;-50
2022/02/14 00:26:00;;;;;;;;;;;;;;;20.81;43.31;98840.38;7285812;19;153332;-51
2022/02/14 00:28:27;;;;;;;;;;;;;;;20.81;42.83;98831.97;7282370;19;154218;-50
2022/02/14 00:30:54;;;;;;;;;;;;;;;20.82;43.04;98832.78;7282764;19;152195;-50
2022/02/14 00:33:21;;;;;;;;;;;;;;;20.81;42.79;98834.78;7286362;19;152931;-50
2022/02/14 00:35:49;;;;;;;;;;;;;;;20.82;42.95;98832.78;7281065;19;155902;-51
2022/02/14 00:38:18;;;;;;;;;;;;;;;20.82;42.47;98832.78;7284917;19;151912;-50
2022/02/14 00:40:44;;;;;;;;;;;;;;;20.82;42.95;98827.16;7283769;19;152486;-50
2022/02/14 00:43:12;;;;;;;;;;;;;;;20.82;42.37;98832.78;7282340;19;153928;-51
2022/02/14 00:45:40;;;;;;;;;;;;;;;20.80;42.48;98844.38;7293089;19;152099;-50
2022/02/14 00:48:07;;;;;;;;;;;;;;;20.80;42.71;98847.16;7280962;19;154486;-50
2022/02/14 00:50:34;;;;;;;;;;;;;;;20.79;42.67;98842.75;7284446;19;151536;-50
2022/02/14 00:53:02;;;;;;;;;;;;;;;20.79;42.69;98853.97;7284077;19;154406;-50
2022/02/14 00:55:29;;;;;;;;;;;;;;;20.79;42.92;98853.16;7282276;19;153790;-50
2022/02/14 00:57:56;;;;;;;;;;;;;;;20.77;42.47;98856.31;7284785;19;151975;-50
2022/02/14 01:00:23;;;;;;;;;;;;;;;20.77;42.71;98866.72;7284530;19;153713;-50
2022/02/14 01:02:50;;;;;;;;;;;;;;;20.75;42.93;98872.72;7282699;19;154064;-50
2022/02/14 01:05:18;;;;;;;;;;;;;;;20.75;42.69;98874.72;7277654;19;152490;-50
2022/02/14 01:07:45;;;;;;;;;;;;;;;20.74;43.17;98890.72;7291716;19;153178;-50
2022/02/14 01:10:13;;;;;;;;;;;;;;;20.73;43.27;98883.47;7280698;19;152460;-50
2022/02/14 01:12:41;;;;;;;;;;;;;;;20.72;42.92;98890.25;7281457;19;153129;-50
2022/02/14 01:15:08;;;;;;;;;;;;;;;20.71;43.33;98899.06;7283170;19;154274;-50
2022/02/14 01:17:36;;;;;;;;;;;;;;;20.70;43.49;98901.03;7285095;19;152968;-50
2022/02/14 01:20:06;;;;;;;;;;;;;;;20.68;43.19;98903.38;7283852;19;155439;-50
2022/02/14 01:22:34;;;;;;;;;;;;;;;20.68;43.45;98905.38;7282737;19;153592;-50
2022/02/14 01:25:01;;;;;;;;;;;;;;;20.65;43.59;98906.91;7284656;19;151914;-50
2022/02/14 01:27:28;;;;;;;;;;;;;;;20.65;43.58;98917.31;7290629;19;153554;-50
2022/02/14 01:29:56;;;;;;;;;;;;;;;20.62;43.48;98926.47;7282717;19;152238;-50
2022/02/14 01:32:23;;;;;;;;;;;;;;;20.60;43.41;98921.19;7282360;19;153616;-50
2022/02/14 01:34:51;;;;;;;;;;;;;;;20.58;43.50;98926.34;7282916;19;153891;-51
2022/02/14 01:37:19;;;;;;;;;;;;;;;20.58;43.54;98922.75;7282589;19;151631;-49
2022/02/14 01:39:46;;;;;;;;;;;;;;;20.55;44.03;98927.06;7281007;19;152532;-50
2022/02/14 01:42:14;;;;;;;;;;;;;;;20.53;43.83;98932.25;7282069;19;152198;-50
2022/02/14 01:44:43;;;;;;;;;;;;;;;20.52;44.25;98943.81;7284080;19;152274;-50
2022/02/14 01:47:11;;;;;;;;;;;;;;;20.50;44.35;98941.34;7281089;19;152212;-50
2022/02/14 01:49:39;;;;;;;;;;;;;;;20.48;44.37;98943.72;7286771;19;154271;-50
2022/02/14 01:52:07;;;;;;;;;;;;;;;20.46;44.21;98951.66;7281414;19;152398;-50
2022/02/14 01:54:34;;;;;;;;;;;;;;;20.44;44.51;98956.81;7282612;19;153950;-50
2022/02/14 01:57:04;;;;;;;;;;;;;;;20.42;44.57;98962.78;7284116;19;151761;-50
2022/02/14 01:59:33;;;;;;;;;;;;;;;20.40;44.34;98953.88;7282942;19;153321;-50
2022/02/14 02:02:04;;;;;;;;;;;;;;;20.38;44.28;98958.25;7281361;19;154620;-50
2022/02/14 02:04:32;;;;;;;;;;;;;;;20.35;44.56;98964.56;7278313;19;151854;-50
2022/02/14 02:06:59;;;;;;;;;;;;;;;20.33;44.42;98970.53;7277786;19;153598;-50
2022/02/14 02:09:26;;;;;;;;;;;;;;;20.31;44.75;98958.00;7280163;19;153178;-50
2022/02/14 02:14:30;;;;;;;;;;;;;;;20.26;44.42;98953.44;7282066;19;154068;-50
2022/02/14 02:16:58;;;;;;;;;;;;;;;20.25;44.79;98951.00;7297205;19;151841;-50
2022/02/14 02:19:25;;;;;;;;;;;;;;;20.24;44.63;98938.16;7295478;19;152803;-50
2022/02/14 02:21:52;;;;;;;;;;;;;;;20.22;44.55;98926.47;7295684;19;153625;-50
2022/02/14 02:24:20;;;;;;;;;;;;;;;20.20;44.62;98924.03;7291243;19;152064;-50
2022/02/14 02:26:56;;;;;;;;;;;;;;;20.19;45.09;98938.41;7295058;19;155006;-51
2022/02/14 02:29:27;;;;;;;;;;;;;;;20.16;45.04;98953.13;7294523;19;153490;-50
2022/02/14 02:31:55;;;;;;;;;;;;;;;20.12;45.14;98950.22;7297461;19;152200;-50
2022/02/14 02:34:23;;;;;;;;;;;;;;;20.12;45.14;98955.00;7302281;19;152986;-49
2022/02/14 02:36:52;;;;;;;;;;;;;;;20.12;45.02;98966.22;7297103;19;151833;-50
2022/02/14 02:39:19;;;;;;;;;;;;;;;20.09;44.80;98972.53;7293616;19;152176;-49
2022/02/14 02:41:46;;;;;;;;;;;;;;;20.05;44.88;98971.59;7295651;19;153431;-51
2022/02/14 02:44:14;;;;;;;;;;;;;;;20.02;44.71;98977.94;7292047;19;152842;-50
2022/02/14 02:46:41;;;;;;;;;;;;;;;20.00;44.65;98975.47;7293064;19;153712;-50
2022/02/14 02:49:10;;;;;;;;;;;;;;;19.99;44.68;98980.25;7291831;19;153598;-51
2022/02/14 02:51:38;;;;;;;;;;;;;;;19.98;44.93;98983.44;7296452;19;151700;-50
2022/02/14 02:54:06;;;;;;;;;;;;;;;19.94;45.05;98983.28;7294129;19;151943;-50
2022/02/14 02:56:33;;;;;;;;;;;;;;;19.93;44.87;98992.06;7299395;19;153757;-50
2022/02/14 02:59:00;;;;;;;;;;;;;;;19.89;44.89;98989.16;7295797;19;153120;-50
2022/02/14 03:01:26;;;;;;;;;;;;;;;19.86;44.94;98991.81;7290321;19;152290;-50
2022/02/14 03:03:54;;;;;;;;;;;;;;;19.83;45.06;98990.56;7292258;19;151976;-51
2022/02/14 03:06:22;;;;;;;;;;;;;;;19.82;44.87;99002.09;7291829;19;153166;-50
2022/02/14 03:08:50;;;;;;;;;;;;;;;19.80;45.13;99005.28;7288850;19;153304;-50
2022/02/14 03:11:18;;;;;;;;;;;;;;;19.78;45.06;99006.78;7295164;19;152100;-50
2022/02/14 03:13:47;;;;;;;;;;;;;;;19.75;45.03;99010.28;7294006;19;152841;-50
2022/02/14 03:16:14;;;;;;;;;;;;;;;19.71;44.82;99018.59;7292953;19;153551;-50
2022/02/14 03:18:42;;;;;;;;;;;;;;;19.69;45.12;99028.50;7303546;19;151926;-51
2022/02/14 03:21:09;;;;;;;;;;;;;;;19.67;45.35;99023.22;7290124;19;153402;-50
2022/02/14 03:23:38;;;;;;;;;;;;;;;19.65;45.40;99030.38;7293460;19;151991;-51
2022/02/14 03:26:05;;;;;;;;;;;;;;;19.59;45.44;99024.16;7294275;19;152896;-50
2022/02/14 03:28:32;;;;;;;;;;;;;;;19.60;45.37;99034.22;7285387;19;152904;-50
2022/02/14 03:31:00;;;;;;;;;;;;;;;19.57;45.05;99034.94;7287702;19;152503;-50
2022/02/14 03:33:27;;;;;;;;;;;;;;;19.57;44.90;99037.72;7287110;19;152355;-50
2022/02/14 03:35:56;;;;;;;;;;;;;;;19.54;44.87;99030.00;7286001;19;154235;-50
2022/02/14 03:38:23;;;;;;;;;;;;;;;19.52;45.28;99046.34;7294386;19;151670;-50
2022/02/14 03:40:50;;;;;;;;;;;;;;;19.49;45.38;99056.25;7282878;19;153282;-50
2022/02/14 03:43:17;;;;;;;;;;;;;;;19.48;45.29;99051.00;7285575;19;152450;-50
2022/02/14 03:45:45;;;;;;;;;;;;;;;19.45;45.07;99074.09;7286619;19;152732;-50
2022/02/14 03:48:12;;;;;;;;;;;;;;;19.42;44.94;99064.38;7286188;19;154195;-50
2022/02/14 03:50:40;;;;;;;;;;;;;;;19.42;45.42;99066.38;7285796;19;153336;-50
2022/02/14 03:53:07;;;;;;;;;;;;;;;19.41;45.55;99068.34;7287462;19;152911;-50
2022/02/14 03:55:34;;;;;;;;;;;;;;;19.38;45.21;99066.25;7283304;19;153189;-50
2022/02/14 03:58:01;;;;;;;;;;;;;;;19.36;45.44;99071.38;7286586;19;152157;-50
2022/02/14 04:00:28;;;;;;;;;;;;;;;19.36;45.29;99073.34;7290765;19;153304;-50
2022/02/14 04:02:56;;;;;;;;;;;;;;;19.34;45.35;99082.13;7285292;19;152219;-50
2022/02/14 04:05:24;;;;;;;;;;;;;;;19.33;45.40;99077.66;7284410;19;152948;-50
2022/02/14 04:07:51;;;;;;;;;;;;;;;19.31;45.37;99084.75;7281463;19;153853;-50
2022/02/14 04:10:18;;;;;;;;;;;;;;;19.28;45.40;99079.88;7282371;19;152092;-51
2022/02/14 04:12:45;;;;;;;;;;;;;;;19.27;45.45;99095.00;7285909;19;152991;-50
2022/02/14 04:15:12;;;;;;;;;;;;;;;19.24;45.36;99098.50;7285357;19;154391;-50
2022/02/14 04:17:39;;;;;;;;;;;;;;;19.23;45.60;99089.28;7283067;19;153172;-50
2022/02/14 04:20:07;;;;;;;;;;;;;;;19.20;45.41;99086.38;7285107;19;152765;-50
2022/02/14 04:22:37;;;;;;;;;;;;;;;19.18;45.48;99095.09;7291996;19;153316;-50
2022/02/14 04:25:05;;;;;;;;;;;;;;;19.16;45.65;99097.44;7282088;19;153933;-50
2022/02/14 04:27:32;;;;;;;;;;;;;;;19.15;45.70;99095.81;7283182;19;153515;-50
2022/02/14 04:29:59;;;;;;;;;;;;;;;19.14;45.57;99096.13;7285198;19;153669;-50
2022/02/14 04:32:26;;;;;;;;;;;;;;;19.10;45.55;99098.81;7286203;19;153600;-50
2022/02/14 04:34:53;;;;;;;;;;;;;;;19.09;45.57;99106.41;7281789;19;154049;-50
2022/02/14 04:37:20;;;;;;;;;;;;;;;19.09;45.30;99117.59;7286465;19;152065;-50
2022/02/14 04:39:47;;;;;;;;;;;;;;;19.08;45.60;99126.31;7280603;19;153481;-50
2022/02/14 04:42:14;;;;;;;;;;;;;;;19.05;45.74;99130.63;7281780;19;155173;-51
2022/02/14 04:44:41;;;;;;;;;;;;;;;19.03;45.77;99132.16;7288291;19;152416;-50
2022/02/14 04:47:09;;;;;;;;;;;;;;;19.02;45.35;99141.72;7285327;19;153501;-50
2022/02/14 04:49:36;;;;;;;;;;;;;;;18.99;45.44;99151.59;7283831;19;152333;-50
2022/02/14 04:52:03;;;;;;;;;;;;;;;18.99;45.29;99151.59;7283682;19;153356;-50
2022/02/14 04:54:30;;;;;;;;;;;;;;;18.98;45.36;99169.56;7283055;19;153955;-50
2022/02/14 04:56:57;;;;;;;;;;;;;;;18.96;45.31;99171.88;7285972;19;152134;-50
2022/02/14 04:59:24;;;;;;;;;;;;;;;18.93;45.19;99175.38;7282545;19;155220;-50
2022/02/14 05:01:51;;;;;;;;;;;;;;;18.91;45.20;99174.88;7283009;19;154785;-50
2022/02/14 05:04:19;;;;;;;;;;;;;;;18.90;45.15;99178.81;7281985;19;152286;-50
2022/02/14 05:06:47;;;;;;;;;;;;;;;18.88;45.32;99174.75;7292135;19;152980;-51
2022/02/14 05:09:13;;;;;;;;;;;;;;;18.87;45.18;99187.09;7278186;19;151802;-50
2022/02/14 05:11:41;;;;;;;;;;;;;;;18.85;45.62;99183.81;7285726;19;152009;-50
2022/02/14 05:14:08;;;;;;;;;;;;;;;18.84;45.57;99194.19;7283337;19;153719;-50
2022/02/14 05:16:35;;;;;;;;;;;;;;;18.83;45.58;99194.53;7285264;19;151877;-50
2022/02/14 05:19:03;;;;;;;;;;;;;;;18.82;45.72;99204.06;7283885;19;153492;-50
2022/02/14 05:21:30;;;;;;;;;;;;;;;18.80;45.37;99209.19;7284555;19;153765;-51
2022/02/14 05:23:58;;;;;;;;;;;;;;;18.75;45.72;99221.41;7284641;19;152177;-50
2022/02/14 05:26:26;;;;;;;;;;;;;;;18.75;45.58;99220.59;7284833;19;152811;-50
2022/02/14 05:28:55;;;;;;;;;;;;;;;18.74;45.41;99222.56;7291917;19;152424;-50
2022/02/14 05:31:23;;;;;;;;;;;;;;;18.72;45.79;99232.44;7286047;19;153237;-50
2022/02/14 05:33:50;;;;;;;;;;;;;;;18.71;45.62;99231.63;7281584;19;154198;-50
2022/02/14 05:36:18;;;;;;;;;;;;;;;18.71;45.81;99247.59;7284877;19;151974;-50
2022/02/14 05:38:46;;;;;;;;;;;;;;;18.70;45.96;99246.78;7279716;19;152662;-51
2022/02/14 05:41:14;;;;;;;;;;;;;;;18.76;46.57;99256.59;7281208;19;153493;-50
2022/02/14 05:43:42;;;;;;;;;;;;;;;18.77;46.31;99263.84;7283794;19;152228;-49
2022/02/14 05:46:13;;;;;;;;;;;;;;;18.81;46.90;99258.38;7281956;19;152691;-51
2022/02/14 05:48:41;;;;;;;;;;;;;;;18.84;46.62;99268.91;7290934;19;153994;-50
2022/02/14 05:51:09;;;;;;;;;;;;;;;18.87;46.98;99269.06;7281899;19;154114;-50
2022/02/14 05:53:37;;;;;;;;;;;;;;;18.92;46.53;99280.06;7284438;19;154053;-50
2022/02/14 05:56:05;;;;;;;;;;;;;;;18.96;46.90;99274.59;7284501;19;152329;-50
2022/02/14 05:58:39;;;;;;;;;;;;;;;19.01;46.88;99283.63;7280278;19;153158;-50
2022/02/14 06:01:06;;;;;;;;;;;;;;;19.07;46.66;99284.25;7283316;19;154617;-50
2022/02/14 06:03:34;;;;;;;;;;;;;;;19.12;46.88;99286.84;7282710;19;151570;-50
2022/02/14 06:06:01;;;;;;;;;;;;;;;19.18;46.50;99298.66;7281626;19;152553;-50
2022/02/14 06:08:29;;;;;;;;;;;;;;;19.23;46.69;99299.28;7282714;19;153371;-50
2022/02/14 06:11:05;;;;;;;;;;;;;;;19.30;46.71;99310.78;7288878;19;152803;-50
2022/02/14 06:13:33;;;;;;;;;;;;;;;19.36;46.08;99308.56;7279752;19;153493;-53
2022/02/14 06:16:01;;;;;;;;;;;;;;;19.42;46.04;99307.22;7280712;19;152254;-50
2022/02/14 06:18:29;;;;;;;;;;;;;;;19.47;45.94;99307.06;7284363;19;153124;-50
2022/02/14 06:20:57;;;;;;;;;;;;;;;19.53;46.24;99312.09;7282534;19;153957;-50
2022/02/14 06:23:24;;;;;;;;;;;;;;;19.58;45.65;99311.06;7282673;19;152143;-50
2022/02/14 06:25:53;;;;;;;;;;;;;;;19.65;45.86;99327.34;7280104;19;154582;-50
2022/02/14 06:28:20;;;;;;;;;;;;;;;19.72;45.57;99327.59;7281300;19;153815;-51
2022/02/14 06:30:47;;;;;;;;;;;;;;;19.76;45.62;99332.19;7282388;19;151892;-50
2022/02/14 06:33:15;;;;;;;;;;;;;;;19.83;45.09;99326.03;7290267;19;153768;-50
2022/02/14 06:35:42;;;;;;;;;;;;;;;19.88;45.28;99334.25;7280097;19;151913;-50
2022/02/14 06:38:10;;;;;;;;;;;;;;;19.93;44.88;99334.84;7282646;19;152683;-50
2022/02/14 06:40:40;;;;;;;;;;;;;;;19.98;44.51;99331.84;7279682;19;153508;-50
2022/02/14 06:43:08;;;;;;;;;;;;;;;20.04;44.44;99334.41;7282452;19;151853;-51
2022/02/14 06:45:35;;;;;;;;;;;;;;;20.10;44.66;99344.25;7280926;19;153145;-50
2022/02/14 06:48:03;;;;;;;;;;;;;;;20.15;44.65;99338.44;7281749;19;152859;-50
2022/02/14 06:50:30;;;;;;;;;;;;;;;20.20;44.20;99338.22;7280411;19;151880;-50
2022/02/14 06:52:58;;;;;;;;;;;;;;;20.25;44.30;99338.00;7282555;19;153955;-50
2022/02/14 06:55:26;;;;;;;;;;;;;;;20.30;44.11;99352.69;7287121;19;153307;-50
2022/02/14 06:57:53;;;;;;;;;;;;;;;20.35;44.38;99352.44;7281832;19;152956;-50
2022/02/14 07:00:21;;;;;;;;;;;;;;;20.40;44.27;99360.63;7279729;19;153355;-50
2022/02/14 07:02:52;;;;;;;;;;;;;;;20.45;44.16;99365.19;7287348;19;152040;-50
2022/02/14 07:05:22;;;;;;;;;;;;;;;20.49;44.05;99368.94;7288121;19;153646;-50
2022/02/14 07:07:49;;;;;;;;;;;;;;;20.54;43.95;99370.72;7288090;19;152303;-50
2022/02/14 07:10:17;;;;;;;;;;;;;;;20.58;43.87;99380.91;7286175;19;152583;-50
2022/02/14 07:12:44;;;;;;;;;;;;;;;20.62;44.28;99373.44;7287199;19;152294;-50
2022/02/14 07:15:12;;;;;;;;;;;;;;;20.66;44.08;99394.03;7285112;19;153601;-49
2022/02/14 07:17:40;;;;;;;;;;;;;;;20.70;44.24;99391.34;7296804;19;151563;-50
2022/02/14 07:20:07;;;;;;;;;;;;;;;20.73;43.93;99393.44;7287856;19;152630;-49
2022/02/14 07:22:35;;;;;;;;;;;;;;;20.77;43.58;99403.63;7286166;19;153311;-49
2022/02/14 07:25:02;;;;;;;;;;;;;;;20.81;43.89;99407.38;7287909;19;152954;-50
2022/02/14 07:27:31;;;;;;;;;;;;;;;20.84;43.54;99419.91;7288400;19;153573;-50
2022/02/14 07:29:59;;;;;;;;;;;;;;;20.87;43.66;99410.78;7288373;19;152447;-50
2022/02/14 07:32:27;;;;;;;;;;;;;;;20.91;43.36;99420.16;7284979;19;153567;-51
2022/02/14 07:34:56;;;;;;;;;;;;;;;20.95;43.53;99426.72;7285672;19;155320;-50
2022/02/14 07:37:23;;;;;;;;;;;;;;;20.98;43.08;99433.63;7296124;19;152023;-50
2022/02/14 07:39:50;;;;;;;;;;;;;;;21.01;42.87;99436.56;7285966;19;153449;-50
2022/02/14 07:42:17;;;;;;;;;;;;;;;21.04;42.88;99438.66;7288987;19;152180;-50
2022/02/14 07:44:45;;;;;;;;;;;;;;;21.06;42.90;99441.94;7285229;19;152128;-50
2022/02/14 07:47:17;;;;;;;;;;;;;;;21.08;42.42;99447.19;7287021;19;152514;-50
2022/02/14 07:49:44;;;;;;;;;;;;;;;21.10;42.42;99453.31;7288523;19;151940;-50
2022/02/14 07:52:11;;;;;;;;;;;;;;;21.11;42.39;99457.75;7286365;19;152807;-50
2022/02/14 07:54:39;;;;;;;;;;;;;;;21.12;42.38;99463.00;7285184;19;153425;-50
2022/02/14 07:57:11;;;;;;;;;;;;;;;21.15;42.37;99469.97;7287825;19;152081;-50
2022/02/14 07:59:37;;;;;;;;;;;;;;;21.14;42.22;99474.75;7293151;19;152741;-50
2022/02/14 08:02:04;;;;;;;;;;;;;;;21.15;42.00;99484.84;7287836;19;152155;-50
2022/02/14 08:04:31;;;;;;;;;;;;;;;21.14;41.78;99473.94;7287820;19;152974;-50
2022/02/14 08:07:02;;;;;;;;;;;;;;;21.15;41.60;99482.03;7284915;19;154690;-50
2022/02/14 08:09:29;;;;;;;;;;;;;;;21.15;41.55;99490.44;7286162;19;152624;-50
2022/02/14 08:11:56;;;;;;;;;;;;;;;21.16;41.77;99488.47;7285052;19;154214;-50
2022/02/14 08:14:23;;;;;;;;;;;;;;;21.15;41.88;99492.44;7284996;19;153580;-50
2022/02/14 08:16:50;;;;;;;;;;;;;;;21.13;41.53;99498.38;7286975;19;151922;-50
2022/02/14 08:19:17;;;;;;;;;;;;;;;21.13;41.94;99500.38;7287156;19;153908;-50
2022/02/14 08:21:44;;;;;;;;;;;;;;;21.11;41.83;99514.75;7293099;19;153772;-50
2022/02/14 08:24:11;;;;;;;;;;;;;;;21.10;41.53;99515.91;7287362;19;154140;-51
2022/02/14 08:26:39;;;;;;;;;;;;;;;21.09;41.30;99505.00;7282145;19;154871;-50
2022/02/14 08:29:06;;;;;;;;;;;;;;;21.07;41.71;99508.19;7284829;19;151997;-50
2022/02/14 08:31:33;;;;;;;;;;;;;;;21.05;41.51;99518.94;7286554;19;153582;-49
2022/02/14 08:34:00;;;;;;;;;;;;;;;21.04;41.51;99522.91;7286121;19;154943;-50
2022/02/14 08:36:28;;;;;;;;;;;;;;;21.03;41.43;99523.28;7287695;19;151835;-50
2022/02/14 08:38:55;;;;;;;;;;;;;;;21.01;41.47;99519.97;7286788;19;152574;-50
2022/02/14 08:41:23;;;;;;;;;;;;;;;20.98;41.81;99524.31;7284738;19;152459;-50
2022/02/14 08:43:53;;;;;;;;;;;;;;;20.97;41.45;99521.84;7294597;19;151894;-50
2022/02/14 08:46:21;;;;;;;;;;;;;;;20.95;41.76;99522.19;7281650;19;154081;-50
2022/02/14 08:48:49;;;;;;;;;;;;;;;20.91;41.58;99521.22;7284731;19;152209;-52
2022/02/14 08:51:19;;;;;;;;;;;;;;;20.91;41.81;99523.22;7286517;19;153338;-50
2022/02/14 08:53:49;;;;;;;;;;;;;;;20.88;41.74;99532.34;7285793;19;153329;-50
2022/02/14 08:56:17;;;;;;;;;;;;;;;20.85;41.97;99529.03;7286100;19;152237;-50
2022/02/14 08:58:46;;;;;;;;;;;;;;;20.82;41.95;99531.72;7286862;19;152789;-50
2022/02/14 09:01:15;;;;;;;;;;;;;;;20.79;41.93;99530.44;7285957;19;153305;-50
2022/02/14 09:03:43;;;;;;;;;;;;;;;20.77;41.80;99540.34;7284340;19;152825;-50
2022/02/14 09:06:12;;;;;;;;;;;;;;;20.74;42.27;99549.47;7287639;19;154004;-50
2022/02/14 09:08:39;;;;;;;;;;;;;;;20.72;42.13;99548.97;7283575;19;152156;-50
2022/02/14 09:11:06;;;;;;;;;;;;;;;20.69;41.82;99542.09;7284211;19;153366;-50
2022/02/14 09:13:36;;;;;;;;;;;;;;;20.66;42.27;99541.97;7284075;19;154129;-50
2022/02/14 09:16:04;;;;;;;;;;;;;;;20.64;42.32;99545.09;7286319;19;151831;-50
2022/02/14 09:18:33;;;;;;;;;;;;;;;20.61;42.29;99545.78;7286503;19;153022;-50
2022/02/14 09:21:01;;;;;;;;;;;;;;;20.60;42.48;99543.31;7282239;19;154126;-50
2022/02/14 09:23:29;;;;;;;;;;;;;;;20.57;42.31;99549.63;7285635;19;151850;-50
2022/02/14 09:25:56;;;;;;;;;;;;;;;20.55;42.55;99547.16;7280419;19;153510;-50
2022/02/14 09:28:24;;;;;;;;;;;;;;;20.41;40.08;99560.63;7289322;19;153965;-51
2022/02/14 09:30:51;;;;;;;;;;;;;;;20.22;39.79;99551.81;7284975;19;153450;-51
2022/02/14 09:33:18;;;;;;;;;;;;;;;20.20;39.92;99557.78;7282592;19;152444;-51
2022/02/14 09:35:47;;;;;;;;;;;;;;;20.19;40.28;99560.91;7284097;19;152073;-51
2022/02/14 09:38:14;;;;;;;;;;;;;;;20.19;40.33;99566.53;7284423;19;152946;-53
2022/02/14 09:40:42;;;;;;;;;;;;;;;20.18;40.19;99568.50;7281999;19;154113;-52
2022/02/14 09:43:10;;;;;;;;;;;;;;;20.16;40.40;99568.03;7280795;19;151899;-51
2022/02/14 09:45:38;;;;;;;;;;;;;;;20.17;40.01;99569.66;7280705;19;152839;-51
2022/02/14 09:48:08;;;;;;;;;;;;;;;20.20;39.83;99579.41;7286918;19;155441;-51
2022/02/14 09:50:37;;;;;;;;;;;;;;;20.21;40.24;99573.47;7281243;19;152118;-51
2022/02/14 09:53:07;;;;;;;;;;;;;;;20.25;40.27;99571.63;7283656;19;153695;-51
2022/02/14 09:55:39;;;;;;;;;;;;;;;20.28;40.10;99582.16;7284741;19;151804;-52
2022/02/14 09:58:07;;;;;;;;;;;;;;;20.30;39.90;99579.88;7282399;19;152867;-52
2022/02/14 10:00:36;;;;;;;;;;;;;;;20.34;39.91;99578.03;7279406;19;154101;-52
2022/02/14 10:03:13;;;;;;;;;;;;;;;20.38;40.23;99580.97;7282099;19;152780;-52
2022/02/14 10:05:42;;;;;;;;;;;;;;;20.39;39.71;99593.84;7281221;19;152969;-52
2022/02/14 10:08:09;;;;;;;;;;;;;;;20.43;39.61;99583.56;7282873;19;153758;-52
2022/02/14 10:10:39;;;;;;;;;;;;;;;20.47;39.74;99583.69;7288138;19;151542;-52
2022/02/14 10:13:09;;;;;;;;;;;;;;;20.49;39.75;99593.41;7282662;19;155290;-52
2022/02/14 10:15:48;;;;;;;;;;;;;;;20.53;39.39;99596.38;7282171;19;152016;-52
2022/02/14 10:18:25;;;;;;;;;;;;;;;20.55;39.53;99600.47;7281364;19;153793;-52
2022/02/14 10:21:21;;;;;;;;;;;;;;;20.58;39.41;99610.22;7267736;19;153742;-52
2022/02/14 10:23:56;;;;;;;;;;;;;;;20.62;39.12;99600.75;7279957;19;151715;-52
2022/02/14 10:26:28;;;;;;;;;;;;;;;20.66;39.35;99612.13;7274712;19;153081;-52
2022/02/14 10:28:56;;;;;;;;;;;;;;;20.69;39.18;99603.00;7281630;19;155373;-52
2022/02/14 10:31:23;;;;;;;;;;;;;;;20.72;39.27;99617.16;7281621;19;151886;-51
2022/02/14 10:33:54;;;;;;;;;;;;;;;20.76;39.75;99611.69;7289137;19;153491;-51
2022/02/14 10:36:23;;;;;;;;;;;;;;;20.79;39.70;99614.66;7284827;19;152286;-51
2022/02/14 10:38:51;;;;;;;;;;;;;;;20.83;39.73;99615.59;7287509;19;153595;-51
2022/02/14 10:41:19;;;;;;;;;;;;;;;20.87;39.56;99621.34;7285407;19;153468;-51
2022/02/14 10:43:46;;;;;;;;;;;;;;;20.90;39.39;99615.03;7286728;19;151650;-51
2022/02/14 10:46:22;;;;;;;;;;;;;;;20.94;39.70;99626.44;7287663;19;154806;-51
2022/02/14 10:48:55;;;;;;;;;;;;;;;20.95;39.17;99634.50;7285448;19;153509;-51
2022/02/14 10:51:25;;;;;;;;;;;;;;;20.97;39.33;99629.38;7287740;19;152181;-51
2022/02/14 10:53:55;;;;;;;;;;;;;;;20.98;39.12;99635.81;7287127;19;151838;-51
2022/02/14 10:56:23;;;;;;;;;;;;;;;20.99;39.49;99627.00;7292912;19;153038;-55
2022/02/14 10:59:06;;;;;;;;;;;;;;;21.00;39.45;99636.25;7286816;19;153260;-51
2022/02/14 11:01:33;;;;;;;;;;;;;;;20.98;39.00;99645.06;7287559;19;154314;-51
2022/02/14 11:04:00;;;;;;;;;;;;;;;20.98;39.03;99645.06;7289285;19;152341;-51
2022/02/14 11:06:29;;;;;;;;;;;;;;;20.98;39.10;99663.88;7287440;19;154686;-51
2022/02/14 11:08:56;;;;;;;;;;;;;;;20.98;39.53;99661.06;7285230;19;154266;-51
2022/02/14 11:11:25;;;;;;;;;;;;;;;20.96;39.18;99666.19;7286727;19;152150;-51
2022/02/14 11:13:54;;;;;;;;;;;;;;;20.95;39.26;99673.78;7288340;19;152959;-51
2022/02/14 11:16:26;;;;;;;;;;;;;;;20.94;39.12;99671.34;7285554;19;152715;-51
2022/02/14 11:18:55;;;;;;;;;;;;;;;20.92;38.81;99676.47;7294710;19;151988;-51
2022/02/14 11:21:24;;;;;;;;;;;;;;;20.91;39.11;99680.44;7284917;19;153430;-51
2022/02/14 11:23:54;;;;;;;;;;;;;;;20.90;38.95;99676.81;7282760;19;152409;-51
2022/02/14 11:26:25;;;;;;;;;;;;;;;20.89;38.88;99682.78;7288587;19;153055;-51
2022/02/14 11:28:56;;;;;;;;;;;;;;;20.87;38.65;99683.13;7284022;19;153366;-52
2022/02/14 11:31:29;;;;;;;;;;;;;;;20.86;38.83;99678.66;7288018;19;152185;-51
2022/02/14 11:33:57;;;;;;;;;;;;;;;20.84;38.68;99681.81;7285069;19;152943;-51
2022/02/14 11:36:27;;;;;;;;;;;;;;;20.83;38.73;99677.38;7282739;19;154529;-51
2022/02/14 11:38:56;;;;;;;;;;;;;;;20.82;38.70;99674.91;7284738;19;151962;-51
2022/02/14 11:41:24;;;;;;;;;;;;;;;20.82;39.19;99678.53;7290067;19;152861;-50
2022/02/14 11:43:52;;;;;;;;;;;;;;;20.83;38.86;99676.53;7286794;19;151955;-50
2022/02/14 11:46:24;;;;;;;;;;;;;;;20.82;39.16;99677.69;7283730;19;152884;-49
2022/02/14 11:49:12;;;;;;;;;;;;;;;20.81;38.83;99679.69;7281190;19;154533;-50
2022/02/14 11:52:00;;;;;;;;;;;;;;;20.80;39.12;99682.84;7285994;19;151969;-52
2022/02/14 11:54:28;;;;;;;;;;;;;;;20.78;39.09;99674.75;7283973;19;153466;-50
2022/02/14 11:57:15;;;;;;;;;;;;;;;20.76;39.20;99677.06;7284228;19;153873;-50
2022/02/14 11:59:43;;;;;;;;;;;;;;;20.74;39.16;99675.78;7285039;19;151855;-50
2022/02/14 12:02:11;;;;;;;;;;;;;;;20.74;39.11;99678.59;7292686;19;153668;-50
2022/02/14 12:04:44;;;;;;;;;;;;;;;20.73;38.69;99679.75;7285534;19;152347;-50
2022/02/14 12:07:15;;;;;;;;;;;;;;;20.70;38.99;99670.03;7284827;19;152852;-52
2022/02/14 12:09:53;;;;;;;;;;;;;;;20.67;38.72;99679.13;7283022;19;153862;-51
2022/02/14 12:12:40;;;;;;;;;;;;;;;20.67;39.07;99684.72;7283047;19;152113;-50
2022/02/14 12:15:16;;;;;;;;;;;;;;;20.62;38.79;99675.72;7282834;19;152832;-50
2022/02/14 12:20:35;;;;;;;;;;;;;;;20.53;39.02;99672.97;7283030;19;152572;-50
2022/02/14 12:23:04;;;;;;;;;;;;;;;20.49;39.30;99680.38;7279336;19;153275;-50
2022/02/14 12:25:35;;;;;;;;;;;;;;;20.48;39.01;99681.56;7289263;19;154155;-51
2022/02/14 12:28:06;;;;;;;;;;;;;;;20.45;39.06;99679.41;7283359;19;152270;-51
2022/02/14 12:30:33;;;;;;;;;;;;;;;20.41;39.20;99676.47;7283598;19;153276;-51
2022/02/14 12:33:01;;;;;;;;;;;;;;;20.50;39.38;99678.41;7284366;19;152081;-51
2022/02/14 12:35:31;;;;;;;;;;;;;;;20.36;36.57;99685.09;7285470;19;152465;-51
2022/02/14 12:38:00;;;;;;;;;;;;;;;20.16;36.77;99680.22;7284269;19;154292;-52
2022/02/14 12:40:51;;;;;;;;;;;;;;;20.12;37.94;99681.22;7284035;19;152682;-51
2022/02/14 12:43:28;;;;;;;;;;;;;;;20.23;38.58;99682.47;7283238;19;151964;-52
2022/02/14 12:46:00;;;;;;;;;;;;;;;20.23;38.86;99688.91;7283522;19;153507;-52
2022/02/14 12:48:37;;;;;;;;;;;;;;;20.20;38.86;99677.56;7290400;19;152199;-52